Time;durP1;ratioP1;P1;durP2;ratioP2;P2;SDS_P1;SDS_P2;PMS_P1;PMS_P2;Temp;Humidity;BMP_temperature;BMP_pressure;BME280_temperature;BME280_humidity;BME280_pressure;Samples;Min_cycle;Max_cycle;Signal;HPM_P1;HPM_P2
2022/06/06 00:01:46;;;;;;;27.73;12.13;;;14.80;99.90;;;;;;5115927;28;20038;-69
2022/06/06 00:04:13;;;;;;;25.25;12.00;;;;;;;;;;5115358;28;20048;-69
2022/06/06 00:06:39;;;;;;;26.40;12.80;;;;;;;;;;5115973;28;20043;-69
2022/06/06 00:09:06;;;;;;;26.02;12.32;;;;;;;;;;5098665;28;20036;-69
2022/06/06 00:11:33;;;;;;;24.83;11.48;;;14.60;99.90;;;;;;5115564;28;20070;-69
2022/06/06 00:13:59;;;;;;;28.77;11.32;;;;;;;;;;5115516;28;20039;-69
2022/06/06 00:16:25;;;;;;;21.52;10.75;;;;;;;;;;5115349;27;20042;-69
2022/06/06 00:18:51;;;;;;;21.92;10.82;;;;;;;;;;5115445;28;20456;-69
2022/06/06 00:21:17;;;;;;;29.35;9.73;;;;;;;;;;5115634;28;20035;-70
2022/06/06 00:23:43;;;;;;;25.73;11.32;;;;;;;;;;5115272;28;20046;-70
2022/06/06 00:26:12;;;;;;;20.98;10.35;;;14.50;99.90;;;;;;5116632;27;20043;-70
2022/06/06 00:28:39;;;;;;;27.55;11.15;;;14.60;99.90;;;;;;5119473;27;20035;-69
2022/06/06 00:36:36;;;;;;;22.35;9.88;;;14.50;99.90;;;;;;5119315;27;20039;-70
2022/06/06 00:39:03;;;;;;;26.05;10.00;;;14.50;99.90;;;;;;5119471;27;20069;-70
2022/06/06 00:41:30;;;;;;;23.70;9.38;;;;;;;;;;5102413;27;20043;-70
2022/06/06 00:44:03;;;;;;;21.23;9.05;;;;;;;;;;5119150;27;20073;-70
2022/06/06 00:46:30;;;;;;;23.13;9.23;;;;;;;;;;5119312;27;20039;-70
2022/06/06 00:48:56;;;;;;;22.80;9.30;;;;;;;;;;5118959;27;20501;-70
2022/06/06 00:51:22;;;;;;;21.05;9.45;;;;;;;;;;5119023;27;20168;-70
2022/06/06 00:53:48;;;;;;;25.48;9.07;;;;;;;;;;5085346;27;20482;-69
2022/06/06 00:56:14;;;;;;;23.02;8.13;;;;;;;;;;5118842;27;20390;-69
2022/06/06 00:58:40;;;;;;;20.35;8.27;;;13.60;99.90;;;;;;5101809;27;20043;-69
2022/06/06 01:01:07;;;;;;;23.60;8.25;;;;;;;;;;5119027;27;20042;-69
2022/06/06 01:03:35;;;;;;;25.88;8.63;;;14.30;99.90;;;;;;5118469;27;20051;-69
2022/06/06 01:06:01;;;;;;;21.23;8.68;;;15.30;99.90;;;;;;5118648;27;20082;-69
2022/06/06 01:08:27;;;;;;;28.60;8.77;;;15.00;99.90;;;;;;5118621;27;20042;-69
2022/06/06 01:10:53;;;;;;;20.45;9.23;;;;;;;;;;5118842;27;20047;-69
2022/06/06 01:13:22;;;;;;;32.20;9.43;;;;;;;;;;5118519;27;20126;-69
2022/06/06 01:15:48;;;;;;;20.15;9.25;;;;;;;;;;5118461;27;20118;-69
2022/06/06 01:18:32;;;;;;;27.77;9.63;;;14.20;99.90;;;;;;5118376;27;20043;-69
2022/06/06 01:21:12;;;;;;;23.65;10.15;;;14.10;99.90;;;;;;5118513;27;20096;-69
2022/06/06 01:23:58;;;;;;;25.52;8.40;;;14.20;99.90;;;;;;5101184;27;20129;-69
2022/06/06 01:26:33;;;;;;;22.77;8.95;;;14.20;99.90;;;;;;5118314;27;20035;-72
2022/06/06 01:28:59;;;;;;;23.77;9.07;;;;;;;;;;5101302;27;20078;-73
2022/06/06 01:31:33;;;;;;;20.35;9.18;;;15.10;99.90;;;;;;5118569;27;20089;-73
2022/06/06 01:34:04;;;;;;;27.95;9.27;;;14.10;99.90;;;;;;5118212;27;20043;-73
2022/06/06 01:36:31;;;;;;;18.90;8.95;;;13.90;99.90;;;;;;5118092;27;20041;-70
2022/06/06 01:38:59;;;;;;;26.15;9.45;;;14.20;99.90;;;;;;5101427;27;20471;-70
2022/06/06 01:41:31;;;;;;;24.83;9.88;;;;;;;;;;5118008;27;20051;-69
2022/06/06 01:44:04;;;;;;;26.52;10.27;;;14.30;99.90;;;;;;5117804;27;20047;-69
2022/06/06 01:46:34;;;;;;;23.10;9.80;;;;;;;;;;5136358;27;20490;-69
2022/06/06 01:49:00;;;;;;;23.50;9.60;;;;;;;;;;5118052;27;20039;-69
2022/06/06 01:51:30;;;;;;;29.52;9.73;;;14.10;99.90;;;;;;5117868;27;20478;-69
2022/06/06 01:53:56;;;;;;;25.45;9.55;;;;;;;;;;5118035;27;20103;-69
2022/06/06 01:56:29;;;;;;;23.30;9.23;;;14.00;99.90;;;;;;5117829;27;20047;-69
2022/06/06 01:58:56;;;;;;;24.92;9.18;;;14.00;99.90;;;;;;5117814;27;20054;-69
2022/06/06 02:01:22;;;;;;;22.42;9.27;;;;;;;;;;5117780;27;20047;-69
2022/06/06 02:03:48;;;;;;;20.45;10.52;;;;;;;;;;5117454;27;20040;-69
2022/06/06 02:06:14;;;;;;;20.05;9.18;;;14.80;99.90;;;;;;5100845;27;20432;-69
2022/06/06 02:08:42;;;;;;;22.10;9.80;;;;;;;;;;5117469;27;20035;-69
2022/06/06 02:11:08;;;;;;;27.25;10.10;;;;;;;;;;5100642;27;20035;-69
2022/06/06 02:13:34;;;;;;;18.15;9.20;;;;;;;;;;5117239;27;20129;-69
2022/06/06 02:16:02;;;;;;;22.60;9.02;;;;;;;;;;5117293;27;20042;-69
2022/06/06 02:18:28;;;;;;;19.00;8.80;;;;;;;;;;5100706;27;20068;-69
2022/06/06 02:20:55;;;;;;;20.33;9.82;;;;;;;;;;5100679;27;20039;-69
2022/06/06 02:23:21;;;;;;;15.75;8.70;;;;;;;;;;5100041;27;20046;-69
2022/06/06 02:25:47;;;;;;;23.23;8.75;;;;;;;;;;5117288;27;20039;-70
2022/06/06 02:28:15;;;;;;;20.25;8.45;;;;;;;;;;5099964;27;20039;-69
2022/06/06 02:30:41;;;;;;;19.77;8.63;;;13.50;99.90;;;;;;5100267;27;20035;-69
2022/06/06 02:33:07;;;;;;;17.38;8.48;;;;;;;;;;5100225;27;20483;-69
2022/06/06 02:35:37;;;;;;;16.73;8.80;;;14.00;99.90;;;;;;5099913;27;20073;-70
2022/06/06 02:38:03;;;;;;;19.52;8.15;;;;;;;;;;5117166;27;20096;-70
2022/06/06 02:40:30;;;;;;;18.67;8.65;;;;;;;;;;5100064;27;20501;-70
2022/06/06 02:42:57;;;;;;;20.60;8.52;;;;;;;;;;5117058;27;20402;-70
2022/06/06 02:45:23;;;;;;;21.80;8.57;;;;;;;;;;5116725;27;20031;-70
2022/06/06 02:47:56;;;;;;;19.48;8.85;;;13.90;99.90;;;;;;5116963;27;20088;-70
2022/06/06 02:50:25;;;;;;;;;;;13.90;99.90;;;;;;5116892;27;20043;-70
2022/06/06 02:52:51;;;;;;;19.50;8.98;;;;;;;;;;5116696;27;20289;-69
2022/06/06 02:55:17;;;;;;;22.35;8.75;;;;;;;;;;5116577;27;20129;-70
2022/06/06 02:57:45;;;;;;;17.77;8.40;;;13.90;99.90;;;;;;5116526;27;20043;-70
2022/06/06 03:00:14;;;;;;;20.40;8.85;;;13.90;99.90;;;;;;5134918;27;20121;-70
2022/06/06 03:02:40;;;;;;;19.95;9.07;;;;;;;;;;5116563;27;20062;-69
2022/06/06 03:05:08;;;;;;;17.52;8.65;;;;;;;;;;5116460;27;20055;-70
2022/06/06 03:07:46;;;;;;;18.45;8.38;;;13.90;99.90;;;;;;5099648;27;20367;-70
2022/06/06 03:10:15;;;;;;;18.02;8.50;;;;;;;;;;5116646;27;20363;-70
2022/06/06 03:12:41;;;;;;;20.02;8.75;;;;;;;;;;5116290;27;20098;-70
2022/06/06 03:15:26;;;;;;;17.17;7.80;;;14.00;99.90;;;;;;5099576;27;20074;-70
2022/06/06 03:20:50;;;;;;;22.60;7.15;;;;;;;;;;5116316;27;20070;-70
2022/06/06 03:23:34;;;;;;;17.92;7.75;;;14.00;99.90;;;;;;5115954;27;20499;-70
2022/06/06 03:26:43;;;;;;;13.43;7.32;;;13.90;99.90;;;;;;5116002;27;20087;-70
2022/06/06 03:29:28;;;;;;;15.73;7.28;;;13.90;99.90;;;;;;5060816;27;20049;-70
2022/06/06 03:32:00;;;;;;;17.38;7.88;;;;;;;;;;5099343;28;20053;-70
2022/06/06 03:34:56;;;;;;;18.65;7.50;;;14.00;99.90;;;;;;5098884;27;20043;-70
2022/06/06 03:37:37;;;;;;;17.90;8.25;;;14.60;99.90;;;;;;5099130;27;20045;-70
2022/06/06 03:40:12;;;;;;;15.43;8.07;;;13.80;99.90;;;;;;5116147;27;20070;-69
2022/06/06 03:42:39;;;;;;;14.75;7.85;;;;;;;;;;5099091;28;20080;-70
2022/06/06 03:45:08;;;;;;;17.10;8.85;;;;;;;;;;5115734;28;20495;-70
2022/06/06 03:48:03;;;;;;;18.50;8.65;;;14.00;99.90;;;;;;5115702;28;20046;-69
2022/06/06 03:50:52;;;;;;;22.77;8.88;;;14.20;99.90;;;;;;5115725;28;20456;-70
2022/06/06 03:53:41;;;;;;;18.42;8.50;;;14.00;99.90;;;;;;5098792;28;20127;-70
2022/06/06 03:56:49;;;;;;;15.82;8.73;;;13.90;99.90;;;;;;5098666;28;20050;-70
2022/06/06 03:59:15;;;;;;;20.02;9.15;;;;;;;;;;5115669;28;20487;-70
2022/06/06 04:01:44;;;;;;;21.20;9.93;;;14.10;99.90;;;;;;5117718;27;20050;-70
2022/06/06 04:04:10;;;;;;;17.15;9.02;;;;;;;;;;5102663;27;20134;-69
2022/06/06 04:06:36;;;;;;;17.02;9.35;;;13.70;99.90;;;;;;5119732;27;20122;-70
2022/06/06 04:09:02;;;;;;;19.90;10.10;;;;;;;;;;5120243;27;20077;-69
2022/06/06 04:11:28;;;;;;;16.33;9.77;;;;;;;;;;5119632;27;20038;-69
2022/06/06 04:13:54;;;;;;;20.98;10.02;;;;;;;;;;5119776;27;20076;-70
2022/06/06 04:16:33;;;;;;;17.52;10.82;;;14.20;99.90;;;;;;5119525;27;20039;-70
2022/06/06 04:19:15;;;;;;;16.65;10.88;;;14.00;99.90;;;;;;5119526;27;20043;-70
2022/06/06 04:21:58;;;;;;;17.33;10.60;;;14.10;99.90;;;;;;5119704;27;20081;-70
2022/06/06 04:24:32;;;;;;;19.35;10.57;;;14.00;99.90;;;;;;5119395;27;20122;-70
2022/06/06 04:26:58;;;;;;;23.52;12.18;;;13.40;99.90;;;;;;5119662;27;20039;-70
2022/06/06 04:29:37;;;;;;;22.98;12.32;;;;;;;;;;5119497;27;20054;-70
2022/06/06 04:32:38;;;;;;;24.38;11.95;;;15.10;99.90;;;;;;5119361;27;20508;-69
2022/06/06 04:35:06;;;;;;;20.65;11.23;;;;;;;;;;5119629;27;20099;-69
2022/06/06 04:37:39;;;;;;;20.65;11.60;;;13.10;99.90;;;;;;5119485;27;20049;-70
2022/06/06 04:40:42;;;;;;;21.40;13.10;;;14.20;99.90;;;;;;5119260;27;20525;-72
2022/06/06 04:43:23;;;;;;;22.20;12.63;;;14.10;99.90;;;;;;5119164;27;20071;-72
2022/06/06 04:46:03;;;;;;;22.48;12.20;;;14.30;99.90;;;;;;5119031;27;20543;-73
2022/06/06 04:48:30;;;;;;;26.83;13.60;;;14.00;99.90;;;;;;5119113;27;20039;-73
2022/06/06 04:50:58;;;;;;;23.23;13.43;;;13.20;99.90;;;;;;5119019;27;20517;-73
2022/06/06 04:53:26;;;;;;;14.90;9.15;;;15.20;99.90;;;;;;5118798;27;20652;-73
2022/06/06 04:55:54;;;;;;;13.88;8.10;;;;;;;;;;5118918;27;20039;-73
2022/06/06 04:58:20;;;;;;;13.20;5.72;;;14.10;99.90;;;;;;5101806;27;20046;-73
2022/06/06 05:00:46;;;;;;;8.55;4.80;;;15.10;99.90;;;;;;5118841;27;20098;-73
2022/06/06 05:03:13;;;;;;;7.72;4.63;;;;;;;;;;5118341;28;20103;-73
2022/06/06 05:05:48;;;;;;;11.40;5.15;;;;;;;;;;5100503;28;20039;-73
2022/06/06 05:08:39;;;;;;;7.63;4.90;;;14.10;99.90;;;;;;5117477;28;20453;-70
2022/06/06 05:11:25;;;;;;;9.88;5.43;;;14.10;99.90;;;;;;5117462;28;20099;-69
2022/06/06 05:14:06;;;;;;;8.15;5.15;;;14.80;99.90;;;;;;5117751;28;20082;-72
2022/06/06 05:16:39;;;;;;;10.63;5.28;;;14.00;99.90;;;;;;5117615;27;20507;-72
2022/06/06 05:19:24;;;;;;;10.68;5.47;;;14.90;99.90;;;;;;5117600;28;20054;-72
2022/06/06 05:21:50;;;;;;;11.32;6.07;;;;;;;;;;5117611;28;20030;-72
2022/06/06 05:24:51;;;;;;;12.60;6.22;;;13.00;99.90;;;;;;5117174;28;20099;-72
2022/06/06 05:27:17;;;;;;;8.95;5.50;;;;;;;;;;5032290;28;20044;-72
2022/06/06 05:29:48;;;;;;;9.52;5.03;;;14.00;99.90;;;;;;5096628;28;20039;-72
2022/06/06 05:32:14;;;;;;;10.50;5.00;;;;;;;;;;5117577;28;20424;-71
2022/06/06 05:34:49;;;;;;;8.18;4.70;;;12.90;99.90;;;;;;5117255;28;20356;-72
2022/06/06 05:37:53;;;;;;;7.68;5.00;;;12.80;99.90;;;;;;5117131;28;20043;-72
2022/06/06 05:40:43;;;;;;;8.38;4.20;;;13.70;99.90;;;;;;5016091;28;20366;-72
2022/06/06 05:43:25;;;;;;;8.20;4.90;;;14.10;99.90;;;;;;5112325;28;20107;-72
2022/06/06 05:46:03;;;;;;;;;;;14.00;99.90;;;;;;5117532;28;20072;-72
2022/06/06 05:48:29;;;;;;;9.02;4.97;;;;;;;;;;5117176;28;19923;-73
2022/06/06 05:51:25;;;;;;;13.13;5.65;;;13.80;99.90;;;;;;5116975;28;20387;-73
2022/06/06 05:54:28;;;;;;;13.73;5.90;;;13.90;99.90;;;;;;5116763;28;20069;-72
2022/06/06 05:57:35;;;;;;;12.82;6.28;;;13.70;99.90;;;;;;5100033;28;20039;-72
2022/06/06 06:00:16;;;;;;;9.93;5.47;;;14.00;99.90;;;;;;5069982;28;20051;-72
2022/06/06 06:02:42;;;;;;;13.77;6.07;;;;;;;;;;5077154;28;1105617;-72
2022/06/06 06:05:27;;;;;;;14.82;6.50;;;13.70;99.90;;;;;;5117657;27;20051;-68
2022/06/06 06:08:16;;;;;;;12.82;6.32;;;12.70;99.90;;;;;;5117833;27;20058;-69
2022/06/06 06:10:42;;;;;;;10.88;5.60;;;;;;;;;;5117483;27;20046;-68
2022/06/06 06:13:33;;;;;;;9.68;4.78;;;13.20;99.90;;;;;;5117462;27;20045;-69
2022/06/06 06:16:02;;;;;;;8.27;4.35;;;13.50;99.90;;;;;;5117477;27;20039;-69
2022/06/06 06:18:40;;;;;;;11.38;4.97;;;14.70;99.90;;;;;;5117323;27;20039;-69
2022/06/06 06:21:14;;;;;;;14.73;5.90;;;13.40;99.90;;;;;;5117551;27;20039;-69
2022/06/06 06:23:48;;;;;;;16.50;5.90;;;13.50;99.90;;;;;;5135013;27;20039;-68
2022/06/06 06:26:17;;;;;;;15.18;6.05;;;;;;;;;;5100693;27;20043;-69
2022/06/06 06:28:45;;;;;;;12.45;6.15;;;13.70;99.90;;;;;;5117390;27;20027;-68
2022/06/06 06:31:31;;;;;;;15.93;6.05;;;13.70;99.90;;;;;;5100135;27;20547;-69
2022/06/06 06:34:31;;;;;;;11.75;5.38;;;13.40;99.90;;;;;;5100386;27;20079;-69
2022/06/06 06:37:09;;;;;;;9.50;4.57;;;13.50;99.90;;;;;;5117564;27;20043;-69
2022/06/06 06:39:47;;;;;;;8.70;4.40;;;14.00;99.90;;;;;;5117339;27;20091;-68
2022/06/06 06:42:30;;;;;;;7.97;4.05;;;13.50;99.90;;;;;;5099768;27;20054;-69
2022/06/06 06:45:33;;;;;;;6.78;3.75;;;13.50;99.90;;;;;;5116765;27;20542;-69
2022/06/06 06:48:05;;;;;;;7.72;3.85;;;13.60;99.90;;;;;;5099743;27;20047;-69
2022/06/06 06:50:42;;;;;;;5.50;3.47;;;13.60;99.90;;;;;;5116818;27;20486;-69
2022/06/06 06:53:11;;;;;;;9.18;3.67;;;;;;;;;;5116540;27;20043;-69
2022/06/06 06:55:57;;;;;;;8.13;3.40;;;12.70;99.90;;;;;;5116693;27;20092;-69
2022/06/06 06:58:53;;;;;;;6.32;3.03;;;14.40;99.90;;;;;;5116677;27;20058;-69
2022/06/06 07:08:32;;;;;;;7.43;3.30;;;13.70;99.90;;;;;;5116807;27;20087;-69
2022/06/06 07:10:41;;;;;;;6.38;2.70;;;13.80;99.90;;;;;;5116373;27;20035;-70
2022/06/06 07:13:19;;;;;;;7.80;3.17;;;13.10;99.90;;;;;;5116666;27;20054;-69
2022/06/06 07:15:51;;;;;;;14.13;3.78;;;14.30;99.90;;;;;;5116588;27;20491;-69
2022/06/06 07:18:20;;;;;;;6.47;3.45;;;14.20;99.90;;;;;;5116423;27;20035;-71
2022/06/06 07:20:47;;;;;;;6.60;2.83;;;14.50;99.90;;;;;;5116525;27;20548;-71
2022/06/06 07:23:14;;;;;;;8.98;3.33;;;;;;;;;;5116285;27;20110;-70
2022/06/06 07:25:44;;;;;;;8.90;3.35;;;14.60;99.90;;;;;;5116198;27;20041;-69
2022/06/06 07:28:16;;;;;;;7.57;3.20;;;14.20;99.90;;;;;;5134439;27;20046;-69
2022/06/06 07:30:49;;;;;;;7.03;2.83;;;14.50;99.90;;;;;;5116124;27;20057;-69
2022/06/06 07:33:43;;;;;;;9.65;3.22;;;14.40;99.90;;;;;;5116032;27;20505;-70
2022/06/06 07:36:09;;;;;;;6.28;3.08;;;;;;;;;;5115921;27;20039;-70
2022/06/06 07:39:06;;;;;;;11.15;3.00;;;14.70;99.90;;;;;;5099100;27;20043;-70
2022/06/06 07:42:20;;;;;;;7.78;2.72;;;13.70;99.90;;;;;;5115974;27;20058;-70
2022/06/06 07:44:46;;;;;;;5.13;2.80;;;;;;;;;;5014467;28;20053;-69
2022/06/06 07:47:28;;;;;;;9.88;3.53;;;14.80;99.90;;;;;;4998141;28;20048;-70
2022/06/06 07:50:00;;;;;;;9.65;2.97;;;14.80;99.90;;;;;;5073498;28;20053;-70
2022/06/06 07:52:57;;;;;;;7.30;3.38;;;14.80;99.90;;;;;;5115853;28;20047;-69
2022/06/06 07:55:47;;;;;;;11.52;3.45;;;14.50;99.90;;;;;;5098761;28;20039;-70
2022/06/06 07:58:20;;;;;;;10.82;3.20;;;14.70;99.90;;;;;;5100927;28;20043;-70
2022/06/06 08:01:02;;;;;;;6.55;3.08;;;14.60;99.90;;;;;;5115962;28;20502;-70
2022/06/06 08:03:48;;;;;;;8.20;3.20;;;;;;;;;;5115481;28;20059;-70
2022/06/06 08:06:30;;;;;;;5.35;2.83;;;14.70;99.90;;;;;;5115611;28;20044;-70
2022/06/06 08:08:56;;;;;;;7.97;3.20;;;;;;;;;;5115904;28;20139;-70
2022/06/06 08:11:54;;;;;;;6.70;3.13;;;15.40;99.90;;;;;;5115686;28;20561;-70
2022/06/06 08:14:40;;;;;;;7.88;3.03;;;14.90;99.90;;;;;;5115646;28;20051;-70
2022/06/06 08:17:33;;;;;;;8.60;2.97;;;15.40;99.90;;;;;;5115665;28;20046;-71
2022/06/06 08:20:18;;;;;;;6.70;3.22;;;15.10;99.90;;;;;;5115653;28;20152;-70
2022/06/06 08:22:44;;;;;;;8.40;3.30;;;;;;;;;;5115581;28;20047;-69
2022/06/06 08:25:15;;;;;;;11.52;3.42;;;;;;;;;;5115907;28;20487;-70
2022/06/06 08:27:51;;;;;;;7.80;3.38;;;15.00;99.90;;;;;;5115767;28;20031;-70
2022/06/06 08:30:19;;;;;;;9.23;3.20;;;15.20;99.90;;;;;;5115615;28;20039;-70
2022/06/06 08:32:45;;;;;;;9.77;3.60;;;;;;;;;;5115450;28;20072;-70
2022/06/06 08:35:12;;;;;;;7.75;3.22;;;;;;;;;;5115298;28;20378;-70
2022/06/06 08:38:13;;;;;;;7.72;2.90;;;15.00;99.90;;;;;;5115266;28;20042;-70
2022/06/06 08:40:54;;;;;;;5.85;3.00;;;;;;;;;;5115469;28;20038;-69
2022/06/06 08:43:41;;;;;;;8.30;3.33;;;15.10;99.90;;;;;;5115065;28;20043;-70
2022/06/06 08:46:39;;;;;;;9.70;3.30;;;15.00;99.90;;;;;;5115170;27;20039;-70
2022/06/06 08:50:44;;;;;;;8.75;3.25;;;;;;;;;;5118903;27;20039;-70
2022/06/06 08:52:04;;;;;;;6.75;3.50;;;15.20;99.90;;;;;;5119100;27;20041;-70
2022/06/06 08:55:08;;;;;;;7.70;3.35;;;13.90;99.90;;;;;;5137091;27;20047;-69
2022/06/06 08:57:49;;;;;;;8.70;3.85;;;15.00;99.90;;;;;;5101725;27;20079;-70
2022/06/06 09:00:24;;;;;;;6.43;3.33;;;;;;;;;;5118793;27;20039;-70
2022/06/06 09:02:54;;;;;;;9.68;3.65;;;;;;;;;;5118589;27;20099;-70
2022/06/06 09:05:41;;;;;;;9.07;4.50;;;15.30;99.90;;;;;;5118943;27;20061;-70
2022/06/06 09:08:28;;;;;;;11.25;3.83;;;16.10;99.90;;;;;;5118788;27;20403;-70
2022/06/06 09:11:03;;;;;;;11.15;3.90;;;;;;;;;;5118832;27;20387;-70
2022/06/06 09:14:11;;;;;;;10.93;4.00;;;15.10;99.90;;;;;;5101867;27;20568;-70
2022/06/06 09:16:49;;;;;;;10.35;4.35;;;15.20;99.90;;;;;;5071672;27;20180;-70
2022/06/06 09:19:39;;;;;;;11.80;5.45;;;15.30;99.90;;;;;;5118294;27;20053;-69
2022/06/06 09:22:25;;;;;;;15.70;6.10;;;;;;;;;;5118461;27;20035;-69
2022/06/06 09:25:13;;;;;;;11.05;5.15;;;;;;;;;;5067648;27;20050;-69
2022/06/06 09:28:04;;;;;;;15.35;6.07;;;15.50;99.90;;;;;;5118722;27;20126;-69
2022/06/06 09:30:53;;;;;;;14.30;6.65;;;14.80;99.90;;;;;;5118394;27;20087;-70
2022/06/06 09:33:52;;;;;;;14.20;6.72;;;15.10;99.90;;;;;;5071585;27;20487;-69
2022/06/06 09:36:36;;;;;;;14.52;7.05;;;15.40;99.90;;;;;;5118089;27;20043;-69
2022/06/06 09:39:20;;;;;;;14.07;6.50;;;15.70;99.90;;;;;;5118060;27;20086;-71
2022/06/06 09:42:10;;;;;;;13.15;6.30;;;15.30;99.90;;;;;;5117952;27;20450;-69
2022/06/06 09:44:36;;;;;;;12.10;5.80;;;;;;;;;;5117974;27;20364;-69
2022/06/06 09:47:39;;;;;;;9.80;5.18;;;15.60;99.90;;;;;;5118186;27;20089;-69
2022/06/06 09:50:05;;;;;;;10.55;5.10;;;;;;;;;;5100769;27;20043;-69
2022/06/06 09:52:56;;;;;;;9.25;4.82;;;15.60;99.90;;;;;;5101037;27;20106;-69
2022/06/06 10:01:11;;;;;;;12.13;4.80;;;;;;;;;;5117993;27;20044;-69
2022/06/06 10:04:10;;;;;;;10.70;4.38;;;15.20;99.90;;;;;;5114079;28;20043;-69
2022/06/06 10:06:36;;;;;;;10.23;4.32;;;;;;;;;;5114412;28;20047;-69
2022/06/06 10:09:09;;;;;;;11.63;4.63;;;15.10;99.90;;;;;;5114333;28;20364;-71
2022/06/06 10:11:56;;;;;;;11.13;4.32;;;15.30;99.90;;;;;;5114036;28;20050;-70
2022/06/06 10:14:46;;;;;;;8.50;3.92;;;15.40;99.90;;;;;;5114072;28;20044;-70
2022/06/06 10:17:30;;;;;;;11.90;3.95;;;16.10;99.90;;;;;;5114236;28;20136;-70
2022/06/06 10:20:17;;;;;;;10.63;3.70;;;16.40;99.90;;;;;;5114328;28;20036;-69
2022/06/06 10:23:00;;;;;;;11.38;3.20;;;16.70;99.90;;;;;;5115234;28;20078;-70
2022/06/06 10:25:57;;;;;;;8.75;3.25;;;16.00;99.90;;;;;;5113731;28;20078;-70
2022/06/06 10:29:08;;;;;;;11.73;3.05;;;16.10;99.90;;;;;;5097128;28;20371;-70
2022/06/06 10:31:51;;;;;;;11.70;3.67;;;15.20;99.90;;;;;;5015839;28;20033;-70
2022/06/06 10:34:17;;;;;;;9.90;2.90;;;;;;;;;;5094470;28;20369;-70
2022/06/06 10:36:43;;;;;;;7.72;3.17;;;;;;;;;;5096895;28;20044;-70
2022/06/06 10:39:09;;;;;;;9.88;3.30;;;;;;;;;;5113868;28;20379;-70
2022/06/06 10:41:52;;;;;;;9.55;3.30;;;16.00;99.90;;;;;;5113577;28;20495;-72
2022/06/06 10:44:27;;;;;;;7.80;2.97;;;16.00;99.90;;;;;;5096533;28;20036;-71
2022/06/06 10:47:16;;;;;;;5.70;2.90;;;15.80;99.90;;;;;;5113393;28;20039;-70
2022/06/06 10:50:17;;;;;;;14.05;3.10;;;15.80;99.90;;;;;;5113603;28;20036;-70
2022/06/06 10:53:15;;;;;;;11.30;3.50;;;15.60;99.90;;;;;;5025471;28;20363;-70
2022/06/06 10:56:13;;;;;;;9.13;3.10;;;15.50;99.90;;;;;;5096167;28;20483;-70
2022/06/06 10:58:49;;;;;;;10.23;3.15;;;15.80;99.90;;;;;;5096288;28;20044;-70
2022/06/06 11:01:40;;;;;;;10.13;3.10;;;16.30;99.90;;;;;;5114360;28;20043;-70
2022/06/06 11:04:15;;;;;;;9.65;3.40;;;;;;;;;;5112960;28;20043;-69
2022/06/06 11:06:44;;;;;;;10.52;3.00;;;;;;;;;;5113061;28;20483;-69
2022/06/06 11:09:47;;;;;;;7.95;3.05;;;15.60;99.90;;;;;;5112878;28;20043;-69
2022/06/06 11:12:13;;;;;;;;;;;;;;;;;;5113535;28;20036;-70
2022/06/06 11:14:41;;;;;;;11.57;3.83;;;15.40;99.90;;;;;;5112846;28;20381;-70
2022/06/06 11:17:44;;;;;;;10.13;3.90;;;15.30;99.90;;;;;;5112752;28;20044;-69
2022/06/06 11:20:51;;;;;;;8.77;3.92;;;15.10;99.90;;;;;;5112830;28;20046;-69
2022/06/06 11:23:38;;;;;;;7.15;3.70;;;15.40;99.90;;;;;;5112830;28;20503;-70
2022/06/06 11:26:19;;;;;;;10.55;4.10;;;14.80;99.90;;;;;;5112766;28;20036;-70
2022/06/06 11:29:36;;;;;;;7.25;3.60;;;14.90;99.90;;;;;;5112610;28;20600;-70
2022/06/06 11:32:39;;;;;;;8.93;4.70;;;15.50;99.90;;;;;;5057575;28;20044;-70
2022/06/06 11:35:27;;;;;;;13.00;4.28;;;15.00;99.90;;;;;;5112740;28;20035;-70
2022/06/06 11:38:14;;;;;;;9.23;4.15;;;;;;;;;;5112845;28;20040;-69
2022/06/06 11:40:55;;;;;;;10.52;4.35;;;16.00;99.90;;;;;;5112581;28;20380;-70
2022/06/06 11:43:21;;;;;;;13.13;5.05;;;;;;;;;;5112360;28;20043;-70
2022/06/06 11:46:05;;;;;;;9.00;5.22;;;14.60;99.90;;;;;;5112771;28;20043;-70
2022/06/06 11:48:43;;;;;;;8.73;4.82;;;15.10;99.90;;;;;;5112859;28;20062;-70
2022/06/06 11:51:09;;;;;;;11.50;4.60;;;;;;;;;;5095633;28;20046;-72
2022/06/06 11:54:16;;;;;;;8.05;4.00;;;16.10;99.90;;;;;;5112515;28;20031;-70
2022/06/06 11:56:43;;;;;;;10.52;4.20;;;;;;;;;;5113809;28;20104;-69
2022/06/06 11:59:29;;;;;;;15.02;5.00;;;14.80;99.90;;;;;;5113622;28;20050;-69
2022/06/06 12:01:55;;;;;;;11.57;5.53;;;;;;;;;;5095672;28;20035;-70
2022/06/06 12:04:51;;;;;;;11.27;5.00;;;15.00;99.90;;;;;;5112033;28;20048;-70
2022/06/06 12:07:48;;;;;;;10.02;4.53;;;15.00;99.90;;;;;;5112336;28;20038;-70
2022/06/06 12:10:38;;;;;;;10.07;4.35;;;14.90;99.90;;;;;;5112318;28;20035;-70
2022/06/06 12:13:24;;;;;;;7.70;4.20;;;14.80;99.90;;;;;;5112285;28;20032;-70
2022/06/06 12:16:13;;;;;;;11.63;4.47;;;14.70;99.90;;;;;;5112371;28;20040;-70
2022/06/06 12:19:12;;;;;;;8.05;3.30;;;14.60;99.90;;;;;;5111996;28;20047;-70
2022/06/06 12:21:58;;;;;;;6.68;3.10;;;14.30;99.90;;;;;;5112402;28;20556;-70
2022/06/06 12:24:51;;;;;;;6.35;2.85;;;;;;;;;;5117183;28;20112;-70
2022/06/06 12:27:30;;;;;;;5.20;2.90;;;14.40;99.90;;;;;;5115925;28;20040;-70
2022/06/06 12:29:56;;;;;;;3.42;2.70;;;;;;;;;;5115989;28;20052;-70
2022/06/06 12:32:46;;;;;;;6.20;3.00;;;14.80;99.90;;;;;;5116109;28;20361;-71
2022/06/06 12:35:19;;;;;;;4.70;2.85;;;14.50;99.90;;;;;;5098810;28;20539;-70
2022/06/06 12:38:05;;;;;;;;;;;14.80;99.90;;;;;;5099640;28;20082;-70
2022/06/06 12:40:37;;;;;;;4.53;2.80;;;;;;;;;;5116215;28;19916;-70
2022/06/06 12:43:34;;;;;;;7.80;3.60;;;14.90;99.90;;;;;;5116013;28;20445;-70
2022/06/06 12:46:00;;;;;;;6.43;3.63;;;;;;;;;;5115772;28;20066;-70
2022/06/06 12:48:46;;;;;;;8.23;4.10;;;14.60;99.90;;;;;;5115788;28;20032;-70
2022/06/06 12:51:12;;;;;;;5.75;4.00;;;;;;;;;;5098776;28;20040;-70
2022/06/06 12:53:41;;;;;;;6.45;3.88;;;;;;;;;;5115603;28;20044;-70
2022/06/06 12:56:37;;;;;;;7.78;4.25;;;14.70;99.90;;;;;;5115672;28;20041;-70
2022/06/06 12:59:18;;;;;;;7.60;4.00;;;13.90;99.90;;;;;;5098624;28;20092;-70
2022/06/06 13:02:10;;;;;;;7.65;4.30;;;14.70;99.90;;;;;;5115620;28;20048;-70
2022/06/06 13:04:36;;;;;;;8.83;4.53;;;;;;;;;;5115276;28;20051;-70
2022/06/06 13:07:27;;;;;;;7.32;3.85;;;14.70;99.90;;;;;;5115612;28;20062;-70
2022/06/06 13:10:14;;;;;;;5.72;2.80;;;14.70;99.90;;;;;;5115327;28;20032;-70
2022/06/06 13:13:10;;;;;;;8.60;2.58;;;14.90;99.90;;;;;;5115178;28;20046;-70
2022/06/06 13:15:45;;;;;;;5.00;2.47;;;15.40;99.90;;;;;;5115180;28;20044;-71
2022/06/06 13:18:30;;;;;;;5.45;2.20;;;;;;;;;;5115235;28;20035;-71
2022/06/06 13:20:56;;;;;;;3.95;1.85;;;;;;;;;;5115051;28;20569;-70
2022/06/06 13:23:46;;;;;;;3.78;1.73;;;14.70;99.90;;;;;;5115208;28;20051;-70
2022/06/06 13:26:25;;;;;;;5.95;1.60;;;15.40;99.90;;;;;;5115406;28;20196;-70
2022/06/06 13:28:55;;;;;;;2.05;1.38;;;13.80;99.90;;;;;;5115235;28;20050;-70
2022/06/06 13:31:39;;;;;;;1.83;1.20;;;14.40;99.90;;;;;;5114891;28;20118;-70
2022/06/06 13:34:23;;;;;;;3.50;1.20;;;;;;;;;;5114833;28;20136;-70
2022/06/06 13:36:52;;;;;;;1.17;1.00;;;;;;;;;;5114962;28;20047;-70
2022/06/06 13:39:40;;;;;;;5.30;1.30;;;14.50;99.90;;;;;;5114770;28;20043;-72
2022/06/06 13:42:55;;;;;;;4.10;1.25;;;14.40;99.90;;;;;;5114624;28;20039;-72
2022/06/06 13:45:29;;;;;;;4.35;1.05;;;14.40;99.90;;;;;;5086862;28;20047;-72
2022/06/06 13:48:19;;;;;;;4.70;1.50;;;14.50;99.90;;;;;;5097773;28;20043;-72
2022/06/06 13:51:28;;;;;;;3.05;1.30;;;14.20;99.90;;;;;;5114547;28;20498;-72
2022/06/06 13:54:01;;;;;;;4.65;1.40;;;14.40;99.90;;;;;;5026227;28;20532;-72
2022/06/06 13:56:45;;;;;;;2.65;1.30;;;14.40;99.90;;;;;;5114459;28;20472;-72
2022/06/06 13:59:39;;;;;;;3.80;1.50;;;14.30;99.90;;;;;;5097418;28;20119;-72
2022/06/06 14:02:26;;;;;;;3.50;1.70;;;14.30;99.90;;;;;;5114161;28;20032;-72
2022/06/06 14:05:10;;;;;;;3.55;1.67;;;;;;;;;;5113934;28;20048;-72
2022/06/06 14:07:57;;;;;;;3.47;2.13;;;14.10;99.90;;;;;;5114006;28;20036;-72
2022/06/06 14:10:34;;;;;;;4.22;1.88;;;;;;;;;;5114129;28;20078;-72
2022/06/06 14:13:31;;;;;;;3.25;1.88;;;14.10;99.90;;;;;;5113922;28;20035;-73
2022/06/06 14:15:58;;;;;;;5.43;2.55;;;14.30;99.90;;;;;;5114300;28;20407;-72
2022/06/06 14:18:34;;;;;;;5.47;2.30;;;14.10;99.90;;;;;;5097306;28;20386;-72
2022/06/06 14:21:03;;;;;;;4.63;2.50;;;14.20;99.90;;;;;;5115769;28;20391;-72
2022/06/06 14:23:38;;;;;;;4.72;2.13;;;14.20;99.90;;;;;;5113693;28;20047;-72
2022/06/06 14:26:09;;;;;;;2.88;2.20;;;;;;;;;;5096577;28;20032;-72
2022/06/06 14:28:40;;;;;;;5.18;2.00;;;;;;;;;;5113571;28;20046;-72
2022/06/06 14:31:27;;;;;;;2.78;1.83;;;14.10;99.90;;;;;;5113779;28;20040;-72
2022/06/06 14:34:18;;;;;;;2.45;1.83;;;14.30;99.90;;;;;;5113857;28;20090;-72
2022/06/06 14:36:46;;;;;;;2.60;2.03;;;;;;;;;;5113962;28;20104;-72
2022/06/06 14:39:22;;;;;;;3.22;2.20;;;14.30;99.90;;;;;;5113416;28;20047;-72